createdAt,value
2023-03-23T15:59:24.077Z,100012.00
2023-03-23T16:02:33.386Z,100000.00
2023-03-23T16:05:01.274Z,99996.00
2023-03-23T16:08:06.295Z,99999.00
2023-03-23T16:20:59.295Z,100022.00
2023-03-23T16:23:35.051Z,100027.00
2023-03-23T16:29:16.034Z,100040.00
2023-03-23T16:31:58.310Z,100043.00
2023-03-23T16:34:30.283Z,100044.00
2023-03-23T16:37:25.090Z,100039.00
2023-03-23T16:43:52.496Z,100051.00
2023-03-23T16:46:23.111Z,100048.00
2023-03-23T16:53:25.526Z,100052.00
2023-03-23T16:56:24.047Z,100053.00
2023-03-23T16:59:22.190Z,100062.00
2023-03-23T17:01:50.381Z,100081.00
2023-03-23T17:07:47.487Z,100058.00
2023-03-23T17:18:07.390Z,100055.00
2023-03-23T17:21:36.309Z,100041.00
2023-03-23T17:24:28.036Z,100037.00
2023-03-23T17:27:03.928Z,100048.00
2023-03-23T17:30:18.015Z,100041.00
2023-03-23T17:36:01.031Z,100032.00
2023-03-23T17:38:50.728Z,100033.00
2023-03-23T17:41:18.216Z,100043.00
2023-03-23T17:57:24.889Z,100031.00
2023-03-23T17:59:58.180Z,100035.00
2023-03-23T18:02:09.862Z,100041.00
2023-03-23T18:02:25.815Z,100026.00
2023-03-23T18:08:52.226Z,100037.00
2023-03-23T18:15:21.156Z,100018.00
2023-03-23T18:18:06.272Z,100015.00
2023-03-23T18:20:40.528Z,100011.00
2023-03-23T18:23:31.499Z,100024.00
2023-03-23T18:26:27.102Z,100017.00
2023-03-23T18:29:16.684Z,100018.00
2023-03-23T18:31:54.580Z,100011.00
2023-03-23T18:34:54.227Z,100010.00
2023-03-23T18:37:39.831Z,99995.00
2023-03-23T18:40:23.025Z,99995.00
2023-03-23T18:43:19.191Z,100008.00
2023-03-23T18:46:05.095Z,99997.00
2023-03-23T18:48:39.255Z,100001.00
2023-03-23T18:51:30.804Z,99984.00
2023-03-23T18:54:44.961Z,99988.00
2023-03-23T18:57:51.179Z,99982.00
2023-03-23T19:03:45.616Z,99981.00
2023-03-23T19:06:37.334Z,99979.00
2023-03-23T19:09:23.821Z,99969.00
2023-03-23T19:11:59.808Z,99958.00
2023-03-23T19:15:07.012Z,99965.00
2023-03-23T19:18:11.339Z,99963.00
2023-03-23T19:21:35.461Z,99959.00
2023-03-23T19:24:18.425Z,99951.00
2023-03-23T19:28:18.149Z,99951.00
2023-03-23T19:30:35.302Z,99954.00
2023-03-23T19:33:14.297Z,99945.00
2023-03-23T19:36:11.864Z,99939.00
2023-03-23T19:39:10.242Z,99944.00
2023-03-23T19:44:45.611Z,99925.00
2023-03-23T19:47:13.546Z,99932.00
2023-03-23T19:50:13.338Z,99920.00
2023-03-23T19:53:04.920Z,99933.00
2023-03-23T19:55:53.484Z,99933.00
2023-03-23T19:58:28.619Z,99927.00
2023-03-23T20:01:03.099Z,99918.00
2023-03-23T20:03:52.249Z,99909.00
2023-03-23T20:06:43.549Z,99924.00
2023-03-23T20:09:11.254Z,99909.00
2023-03-23T20:12:00.216Z,99909.00
2023-03-23T20:15:16.864Z,99908.00
2023-03-23T20:18:34.586Z,99908.00
2023-03-23T20:21:31.732Z,99904.00
2023-03-23T20:23:59.427Z,99896.00
2023-03-23T20:27:03.298Z,99895.00
2023-03-23T20:29:39.535Z,99882.00
2023-03-23T20:32:33.540Z,99894.00
2023-03-23T20:38:20.640Z,99885.00
2023-03-23T20:41:26.759Z,99881.00
2023-03-23T20:44:32.754Z,99882.00
2023-03-23T20:47:17.778Z,99882.00
2023-03-23T20:50:13.173Z,99869.00
2023-03-23T20:53:04.759Z,99872.00
2023-03-23T20:55:39.889Z,99880.00
2023-03-23T20:58:08.280Z,99874.00
2023-03-23T21:00:58.025Z,99865.00
2023-03-23T21:04:03.728Z,99864.00
2023-03-23T21:06:38.412Z,99873.00
2023-03-23T21:09:23.476Z,99870.00
2023-03-23T21:12:12.591Z,99872.00
2023-03-23T21:15:26.242Z,99867.00
2023-03-23T21:18:00.908Z,99862.00
2023-03-23T21:20:47.964Z,99875.00
2023-03-23T21:23:37.744Z,99870.00
2023-03-23T21:29:32.589Z,99864.00
2023-03-23T21:32:15.574Z,99868.00
2023-03-23T21:34:50.448Z,99868.00
2023-03-23T21:37:24.481Z,99860.00
2023-03-23T21:40:17.297Z,99851.00
2023-03-23T21:42:49.601Z,99841.00
2023-03-23T21:45:27.738Z,99842.00
2023-03-23T21:47:57.420Z,99850.00
2023-03-23T21:50:27.053Z,99833.00
2023-03-23T21:52:58.269Z,99842.00
2023-03-23T21:55:29.808Z,99844.00
2023-03-23T21:58:01.750Z,99845.00
2023-03-23T22:00:30.119Z,99846.00
2023-03-23T22:02:57.517Z,99845.00
2023-03-23T22:05:25.230Z,99842.00
2023-03-23T22:07:54.499Z,99834.00
2023-03-23T22:10:22.253Z,99824.00
2023-03-23T22:12:53.742Z,99832.00
2023-03-23T22:15:28.087Z,99829.00
2023-03-23T22:17:56.303Z,99822.00
2023-03-23T22:20:24.249Z,99811.00
2023-03-23T22:22:52.122Z,99822.00
2023-03-23T22:25:20.918Z,99824.00
2023-03-23T22:28:28.324Z,99803.00
2023-03-23T22:31:05.638Z,99789.00
2023-03-23T22:33:54.258Z,99803.00
2023-03-23T22:37:18.237Z,99796.00
2023-03-23T22:43:44.632Z,99789.00
2023-03-23T22:46:32.584Z,99777.00
2023-03-23T22:49:34.980Z,99761.00
2023-03-23T22:52:53.264Z,99750.00
2023-03-23T22:58:30.705Z,99747.00
2023-03-23T23:04:34.309Z,99740.00
2023-03-23T23:23:06.178Z,99728.00
2023-03-23T23:33:30.258Z,99708.00
